Time;durP1;ratioP1;P1;durP2;ratioP2;P2;SDS_P1;SDS_P2;PMS_P1;PMS_P2;Temp;Humidity;BMP_temperature;BMP_pressure;BME280_temperature;BME280_humidity;BME280_pressure;Samples;Min_cycle;Max_cycle;Signal;HPM_P1;HPM_P2
2023/01/25 00:04:44;;;;;;;39.63;16.53;;;2.30;99.90;;;;;;10297131;28;20042;-84
2023/01/25 00:09:44;;;;;;;36.50;14.57;;;2.30;99.90;;;;;;10317013;28;20038;-84
2023/01/25 00:14:45;;;;;;;51.00;17.57;;;2.30;99.90;;;;;;10315728;28;20390;-84
2023/01/25 00:19:46;;;;;;;58.33;19.27;;;2.30;99.90;;;;;;10303808;28;20050;-84
2023/01/25 00:24:46;;;;;;;40.53;15.57;;;2.30;99.90;;;;;;10312456;28;20116;-84
2023/01/25 00:29:47;;;;;;;51.07;18.43;;;2.30;99.90;;;;;;10276137;28;20030;-85
2023/01/25 00:34:49;;;;;;;43.70;14.70;;;2.30;99.90;;;;;;10296699;28;20567;-84
2023/01/25 00:39:51;;;;;;;50.77;16.60;;;2.30;99.90;;;;;;10319739;28;20077;-84
2023/01/25 00:44:51;;;;;;;38.53;14.47;;;2.30;99.90;;;;;;10288657;28;20030;-84
2023/01/25 00:49:52;;;;;;;49.53;16.53;;;2.30;99.90;;;;;;10294588;28;20026;-86
2023/01/25 00:54:54;;;;;;;54.63;20.00;;;2.40;99.90;;;;;;10308810;28;20045;-86
2023/01/25 00:59:54;;;;;;;73.37;27.47;;;2.40;99.90;;;;;;10319283;28;20819;-85
2023/01/25 01:04:55;;;;;;;58.50;21.40;;;2.40;99.90;;;;;;10307692;28;20030;-85
2023/01/25 01:09:56;;;;;;;45.50;17.63;;;2.40;99.90;;;;;;10314618;28;20123;-84
2023/01/25 01:14:56;;;;;;;44.03;15.63;;;2.40;99.90;;;;;;10296160;28;20083;-85
2023/01/25 01:19:57;;;;;;;43.83;17.43;;;2.40;99.90;;;;;;10314045;28;20031;-85
2023/01/25 01:24:57;;;;;;;46.90;17.40;;;2.40;99.90;;;;;;10299368;28;20046;-85
2023/01/25 01:29:58;;;;;;;56.70;20.37;;;2.40;99.90;;;;;;10262477;28;20062;-85
2023/01/25 01:34:58;;;;;;;50.43;17.93;;;2.40;99.90;;;;;;10301503;28;20414;-85
2023/01/25 01:39:59;;;;;;;40.63;13.17;;;2.40;99.90;;;;;;10317677;28;20716;-86
2023/01/25 01:44:59;;;;;;;50.57;16.30;;;2.40;99.90;;;;;;10300085;28;20033;-85
2023/01/25 01:50:10;;;;;;;45.63;17.87;;;2.40;99.90;;;;;;10307955;28;20034;-85
2023/01/25 01:55:16;;;;;;;54.23;19.83;;;2.40;99.90;;;;;;10303821;28;20042;-85
2023/01/25 02:00:22;;;;;;;53.00;18.57;;;2.40;99.90;;;;;;10310502;28;20577;-85
2023/01/25 02:05:56;;;;;;;41.17;15.13;;;2.40;99.90;;;;;;10292271;28;20078;-86
2023/01/25 02:10:57;;;;;;;55.57;18.43;;;2.50;99.90;;;;;;10288893;28;20089;-85
2023/01/25 02:15:58;;;;;;;48.77;16.10;;;2.50;99.90;;;;;;10310214;28;20035;-86
2023/01/25 02:21:00;;;;;;;65.87;20.97;;;2.40;99.90;;;;;;10319226;28;20549;-84
2023/01/25 02:26:03;;;;;;;44.10;15.50;;;2.40;99.90;;;;;;10324547;28;20373;-85
2023/01/25 02:31:04;;;;;;;52.53;19.53;;;2.50;99.90;;;;;;10307386;28;20041;-85
2023/01/25 02:36:07;;;;;;;57.03;17.77;;;2.50;99.90;;;;;;10316072;28;20034;-85
2023/01/25 02:41:14;;;;;;;50.20;17.93;;;2.40;99.90;;;;;;10315014;28;20034;-85
2023/01/25 02:46:24;;;;;;;60.13;21.43;;;2.50;99.90;;;;;;10287260;28;20089;-85
2023/01/25 02:51:27;;;;;;;52.70;18.87;;;2.40;99.90;;;;;;10298213;28;20042;-85
2023/01/25 02:56:29;;;;;;;67.83;24.17;;;2.40;99.90;;;;;;10324079;28;20030;-85
2023/01/25 03:01:31;;;;;;;64.33;21.40;;;2.40;99.90;;;;;;10296370;28;20070;-84
2023/01/25 03:06:32;;;;;;;61.03;20.83;;;2.40;99.90;;;;;;10315974;28;20038;-85
2023/01/25 03:11:34;;;;;;;74.60;25.30;;;2.40;99.90;;;;;;10313227;28;20101;-85
2023/01/25 03:16:34;;;;;;;54.07;20.43;;;2.40;99.90;;;;;;10320091;28;20034;-86
2023/01/25 03:21:35;;;;;;;65.70;20.37;;;2.40;99.90;;;;;;10322585;28;20386;-85
2023/01/25 03:27:09;;;;;;;50.43;17.63;;;2.40;99.90;;;;;;10304683;28;20062;-87
2023/01/25 03:31:56;;;;;;;48.37;17.83;;;2.40;99.90;;;;;;10285842;28;20142;-86
2023/01/25 03:36:56;;;;;;;64.33;21.47;;;2.40;99.90;;;;;;10303736;28;20028;-85
2023/01/25 03:41:57;;;;;;;55.37;20.87;;;2.40;99.90;;;;;;10304911;28;20058;-85
2023/01/25 03:46:57;;;;;;;89.07;28.37;;;2.40;99.90;;;;;;10307465;28;20030;-85
2023/01/25 03:51:58;;;;;;;67.03;23.17;;;2.30;99.90;;;;;;10321139;28;20149;-86
2023/01/25 03:56:58;;;;;;;73.57;26.13;;;2.30;99.90;;;;;;10320787;28;20034;-85
2023/01/25 04:01:59;;;;;;;76.27;25.60;;;2.30;99.90;;;;;;10287560;28;20041;-85
2023/01/25 04:07:00;;;;;;;98.17;29.47;;;2.30;99.90;;;;;;10298676;28;20026;-86
2023/01/25 04:12:00;;;;;;;83.57;29.20;;;2.30;99.90;;;;;;10297551;28;20477;-85
2023/01/25 04:17:04;;;;;;;73.23;24.80;;;2.30;99.90;;;;;;10308055;28;20034;-84
2023/01/25 04:22:04;;;;;;;73.17;23.70;;;2.30;99.90;;;;;;10304870;28;20037;-85
2023/01/25 04:27:05;;;;;;;66.27;20.40;;;2.30;99.90;;;;;;10308918;28;20070;-87
2023/01/25 04:32:06;;;;;;;65.63;24.53;;;2.30;99.90;;;;;;10331414;23;20065;-87
2023/01/25 04:37:06;;;;;;;60.47;22.63;;;2.30;99.90;;;;;;10344741;28;20022;-85
2023/01/25 04:42:07;;;;;;;87.80;30.90;;;2.30;99.90;;;;;;10342642;28;20120;-84
2023/01/25 04:47:08;;;;;;;71.93;25.63;;;2.30;99.90;;;;;;10340687;28;20129;-84
2023/01/25 04:52:08;;;;;;;58.53;19.70;;;2.40;99.90;;;;;;10313358;28;20049;-85
2023/01/25 04:57:09;;;;;;;70.90;21.97;;;2.30;99.90;;;;;;10330079;28;20108;-85
2023/01/25 05:02:09;;;;;;;63.60;20.40;;;2.30;99.90;;;;;;10337383;28;20117;-85
2023/01/25 05:07:10;;;;;;;66.30;19.00;;;2.30;99.90;;;;;;10345818;28;20046;-85
2023/01/25 05:12:12;;;;;;;63.70;21.13;;;2.30;99.90;;;;;;10339433;28;20050;-82
2023/01/25 05:17:13;;;;;;;76.33;26.70;;;2.30;99.90;;;;;;10340101;28;20470;-81
2023/01/25 05:22:15;;;;;;;94.37;31.77;;;2.30;99.90;;;;;;10346254;28;20048;-81
2023/01/25 05:27:18;;;;;;;100.73;28.27;;;2.30;99.90;;;;;;10313431;28;20477;-82
2023/01/25 05:32:21;;;;;;;112.10;34.73;;;2.30;99.90;;;;;;10341863;28;20657;-82
2023/01/25 05:37:21;;;;;;;110.13;30.00;;;2.30;99.90;;;;;;10358759;28;20014;-81
2023/01/25 05:42:22;;;;;;;88.20;31.17;;;2.30;99.90;;;;;;10358823;28;20466;-83
2023/01/25 05:47:22;;;;;;;94.80;27.60;;;2.20;99.90;;;;;;10359039;28;20033;-82
2023/01/25 05:52:23;;;;;;;79.80;24.50;;;2.30;99.90;;;;;;10361747;28;20047;-82
2023/01/25 05:57:23;;;;;;;71.83;23.80;;;2.20;99.90;;;;;;10340971;28;20030;-82
2023/01/25 06:02:24;;;;;;;83.90;26.63;;;2.30;99.90;;;;;;10322463;28;20034;-81
2023/01/25 06:07:25;;;;;;;67.37;22.23;;;2.30;99.90;;;;;;10365448;28;20033;-81
2023/01/25 06:12:25;;;;;;;77.13;24.60;;;2.30;99.90;;;;;;10366300;28;20038;-82
2023/01/25 06:17:26;;;;;;;74.07;23.00;;;2.20;99.90;;;;;;10365785;28;20026;-82
2023/01/25 06:22:26;;;;;;;74.03;24.10;;;2.20;99.90;;;;;;10347938;28;20112;-81
2023/01/25 06:27:27;;;;;;;85.60;26.93;;;2.20;99.90;;;;;;10365284;28;20025;-82
2023/01/25 06:32:32;;;;;;;80.77;26.80;;;2.20;99.90;;;;;;10365612;28;20449;-82
2023/01/25 06:37:32;;;;;;;84.27;28.87;;;2.20;99.90;;;;;;10365672;28;20045;-82
2023/01/25 06:42:33;;;;;;;96.87;29.03;;;2.30;99.90;;;;;;10364801;28;20141;-81
2023/01/25 06:47:33;;;;;;;86.73;26.30;;;2.20;99.90;;;;;;10365137;28;20030;-81
2023/01/25 06:52:35;;;;;;;81.47;23.70;;;2.20;99.90;;;;;;10364400;28;20050;-82
2023/01/25 06:57:35;;;;;;;94.90;29.33;;;2.20;99.90;;;;;;10364011;28;20495;-81
2023/01/25 07:02:36;;;;;;;83.53;25.40;;;2.20;99.90;;;;;;10350404;28;20148;-81
2023/01/25 07:07:37;;;;;;;95.77;30.47;;;2.20;99.90;;;;;;10362981;28;20565;-82
2023/01/25 07:12:37;;;;;;;96.37;30.90;;;2.10;99.90;;;;;;10363063;28;20041;-82
2023/01/25 07:17:38;;;;;;;89.10;26.93;;;2.20;99.90;;;;;;10362811;28;20095;-82
2023/01/25 07:22:38;;;;;;;107.83;32.37;;;2.20;99.90;;;;;;10363045;28;20148;-81
2023/01/25 07:27:39;;;;;;;87.97;25.20;;;2.20;99.90;;;;;;10362892;28;20034;-82
2023/01/25 07:32:39;;;;;;;92.23;29.30;;;2.20;99.90;;;;;;10362315;28;20086;-81
2023/01/25 07:37:41;;;;;;;92.20;28.83;;;2.20;99.90;;;;;;10361789;28;20408;-81
2023/01/25 07:42:41;;;;;;;88.73;29.50;;;2.10;99.90;;;;;;10361806;28;20057;-81
2023/01/25 07:47:42;;;;;;;92.23;28.57;;;2.20;99.90;;;;;;10362944;28;20113;-81
2023/01/25 07:52:42;;;;;;;93.83;29.13;;;2.20;99.90;;;;;;10362018;28;20508;-82
2023/01/25 07:57:43;;;;;;;88.50;29.97;;;2.20;99.90;;;;;;10360992;28;20120;-81
2023/01/25 08:02:43;;;;;;;82.80;27.90;;;2.20;99.90;;;;;;10361758;28;20144;-81
2023/01/25 08:07:44;;;;;;;84.20;27.93;;;2.20;99.90;;;;;;10361671;28;20558;-82
2023/01/25 08:12:45;;;;;;;64.37;22.93;;;2.20;99.90;;;;;;10360352;28;20038;-81
2023/01/25 08:17:45;;;;;;;60.80;19.87;;;2.20;99.90;;;;;;10361998;28;20063;-81
2023/01/25 08:22:46;;;;;;;50.67;18.53;;;2.10;99.90;;;;;;10360234;28;20021;-82
2023/01/25 08:27:46;;;;;;;59.60;22.07;;;2.20;99.90;;;;;;10360967;28;20026;-83
2023/01/25 08:32:47;;;;;;;52.33;19.00;;;2.20;99.90;;;;;;10360641;28;20060;-82
2023/01/25 08:37:47;;;;;;;113.07;40.67;;;2.20;99.90;;;;;;10361557;28;20037;-82
2023/01/25 08:42:48;;;;;;;82.23;27.83;;;2.20;99.90;;;;;;10360361;28;20037;-82
2023/01/25 08:47:49;;;;;;;61.47;23.73;;;2.30;99.90;;;;;;10360395;28;20038;-82
2023/01/25 08:52:50;;;;;;;71.70;22.53;;;2.30;99.90;;;;;;10360070;28;20034;-81
2023/01/25 08:57:51;;;;;;;106.00;33.43;;;2.30;99.90;;;;;;10359757;28;20116;-81
2023/01/25 09:02:51;;;;;;;57.63;16.97;;;2.30;99.90;;;;;;10346002;28;20022;-82
2023/01/25 09:07:52;;;;;;;44.93;13.23;;;2.30;99.90;;;;;;10359715;28;20046;-82
2023/01/25 09:12:52;;;;;;;48.17;16.43;;;2.20;99.90;;;;;;10360029;28;20034;-81
2023/01/25 09:17:54;;;;;;;53.27;17.13;;;2.20;99.90;;;;;;10360059;28;20163;-82
2023/01/25 09:22:55;;;;;;;49.73;15.57;;;2.30;99.90;;;;;;10360264;28;20034;-82
2023/01/25 09:27:56;;;;;;;44.73;15.67;;;2.30;99.90;;;;;;10368261;28;20026;-82
2023/01/25 09:32:57;;;;;;;45.27;16.10;;;2.30;99.90;;;;;;10367499;28;20068;-82
2023/01/25 09:37:57;;;;;;;46.40;16.03;;;2.40;99.90;;;;;;10367253;28;20120;-82
2023/01/25 09:43:26;;;;;;;43.43;15.30;;;2.40;99.90;;;;;;10366485;28;20038;-82
2023/01/25 09:48:37;;;;;;;46.57;16.53;;;2.40;99.90;;;;;;10365011;28;20038;-81
2023/01/25 09:53:42;;;;;;;36.40;13.50;;;2.40;99.90;;;;;;10366573;28;20092;-82
2023/01/25 09:58:45;;;;;;;39.03;14.73;;;2.40;99.90;;;;;;10366366;28;20469;-83
2023/01/25 10:03:54;;;;;;;32.47;12.67;;;2.40;99.90;;;;;;10366478;28;20057;-81
2023/01/25 10:09:10;;;;;;;54.03;17.00;;;2.40;99.90;;;;;;10348331;28;20092;-79
2023/01/25 10:14:17;;;;;;;47.45;15.32;;;2.40;99.90;;;;;;10366426;28;20053;-80
2023/01/25 10:19:24;;;;;;;59.83;19.17;;;2.30;99.90;;;;;;10366088;28;20072;-79
2023/01/25 10:24:43;;;;;;;43.37;15.80;;;2.40;99.90;;;;;;10365339;28;20026;-79
2023/01/25 10:29:45;;;;;;;53.53;17.83;;;2.30;99.90;;;;;;10365011;28;20115;-81
2023/01/25 10:34:53;;;;;;;74.27;23.47;;;2.30;99.90;;;;;;10350839;28;20708;-80
2023/01/25 10:40:25;;;;;;;79.07;26.83;;;2.50;99.90;;;;;;10339737;28;20132;-79
2023/01/25 10:45:26;;;;;;;96.07;27.80;;;2.50;99.90;;;;;;10349762;28;20694;-79
2023/01/25 10:50:41;;;;;;;96.57;28.97;;;2.60;99.90;;;;;;10364494;28;20041;-80
2023/01/25 10:55:56;;;;;;;66.70;21.55;;;2.50;99.90;;;;;;10346333;28;20109;-79
2023/01/25 11:00:58;;;;;;;51.57;16.70;;;2.60;99.90;;;;;;10346456;28;20120;-80
2023/01/25 11:05:58;;;;;;;50.73;18.37;;;2.60;99.90;;;;;;10363588;28;20117;-79
2023/01/25 11:11:13;;;;;;;49.10;17.03;;;2.60;99.90;;;;;;10363517;28;20040;-80
2023/01/25 11:16:29;;;;;;;40.83;16.67;;;2.70;99.90;;;;;;10363772;28;20036;-80
2023/01/25 11:21:34;;;;;;;37.15;15.25;;;2.70;99.90;;;;;;10363236;28;20032;-80
2023/01/25 11:26:39;;;;;;;32.38;13.32;;;2.70;99.90;;;;;;10345700;28;20081;-80
2023/01/25 11:31:44;;;;;;;41.20;17.45;;;2.60;99.90;;;;;;10361836;28;20901;-80
2023/01/25 11:37:06;;;;;;;37.87;13.83;;;2.60;99.90;;;;;;10345043;28;20068;-80
2023/01/25 11:42:29;;;;;;;29.63;13.23;;;2.70;99.90;;;;;;10355949;28;20101;-81
2023/01/25 11:48:08;;;;;;;37.30;13.63;;;2.70;99.90;;;;;;10358863;28;20053;-80
2023/01/25 11:53:33;;;;;;;37.43;14.47;;;2.60;99.90;;;;;;10251750;28;20042;-81
2023/01/25 11:58:36;;;;;;;36.30;14.60;;;2.70;99.90;;;;;;10362124;28;20061;-81
2023/01/25 12:04:22;;;;;;;39.77;15.13;;;2.70;99.90;;;;;;10362107;28;20022;-79
2023/01/25 12:09:55;;;;;;;41.40;17.00;;;2.70;99.90;;;;;;10361828;28;20025;-80
2023/01/25 12:15:30;;;;;;;40.20;17.13;;;2.80;99.90;;;;;;10361733;28;20084;-80
2023/01/25 12:20:59;;;;;;;44.00;15.80;;;2.70;99.90;;;;;;10360907;28;20021;-80
2023/01/25 12:26:29;;;;;;;44.10;16.43;;;2.60;99.90;;;;;;10362573;28;20026;-80
2023/01/25 12:31:45;;;;;;;40.20;16.80;;;2.70;99.90;;;;;;10360582;28;20062;-79
2023/01/25 12:36:48;;;;;;;38.30;16.23;;;2.60;99.90;;;;;;10361556;28;20046;-80
2023/01/25 12:42:08;;;;;;;27.00;12.77;;;2.70;99.90;;;;;;10361064;28;20355;-80
2023/01/25 12:47:15;;;;;;;36.03;14.70;;;2.60;99.90;;;;;;10361927;28;20241;-81
2023/01/25 12:52:33;;;;;;;33.17;15.13;;;2.60;99.90;;;;;;10360033;28;20038;-80
2023/01/25 12:57:47;;;;;;;29.23;12.50;;;2.60;99.90;;;;;;10358839;28;20057;-81
2023/01/25 13:03:26;;;;;;;42.43;17.37;;;2.60;99.90;;;;;;10360707;28;20109;-80
2023/01/25 13:08:52;;;;;;;30.77;14.30;;;2.60;99.90;;;;;;10319678;28;20042;-80
2023/01/25 13:14:16;;;;;;;27.33;12.17;;;2.60;99.90;;;;;;10317184;28;20046;-81
2023/01/25 13:19:28;;;;;;;27.43;13.73;;;2.60;99.90;;;;;;10355013;28;20133;-80
2023/01/25 13:24:31;;;;;;;24.50;11.60;;;2.60;99.90;;;;;;10352147;28;20129;-83
2023/01/25 13:29:38;;;;;;;23.17;11.07;;;2.70;99.90;;;;;;10346090;28;20050;-83
2023/01/25 13:34:43;;;;;;;23.70;10.83;;;2.60;99.90;;;;;;10331286;28;20065;-84
2023/01/25 13:39:55;;;;;;;21.73;10.83;;;2.60;99.90;;;;;;10323786;28;20041;-83
2023/01/25 13:45:00;;;;;;;23.37;11.13;;;2.50;99.90;;;;;;10325489;28;20045;-84
2023/01/25 13:50:24;;;;;;;27.33;12.27;;;2.50;99.90;;;;;;10346866;28;20026;-83
2023/01/25 13:55:25;;;;;;;24.47;11.37;;;2.40;99.90;;;;;;10329310;28;20026;-83
2023/01/25 14:00:26;;;;;;;21.83;11.23;;;2.50;99.90;;;;;;10330122;28;20030;-83
2023/01/25 14:05:27;;;;;;;23.27;10.60;;;2.40;99.90;;;;;;10356050;28;20030;-83
2023/01/25 14:10:27;;;;;;;31.60;17.43;;;2.30;99.90;;;;;;10342592;28;20175;-84
2023/01/25 14:15:30;;;;;;;25.43;12.80;;;2.40;99.90;;;;;;10334233;28;20085;-83
2023/01/25 14:20:31;;;;;;;25.97;12.47;;;2.40;99.90;;;;;;10358587;28;20036;-84
2023/01/25 14:25:32;;;;;;;65.53;41.83;;;2.40;99.90;;;;;;10350269;28;20402;-83
2023/01/25 14:30:34;;;;;;;22.37;11.37;;;2.40;99.90;;;;;;10355506;28;20049;-84
2023/01/25 14:35:36;;;;;;;27.17;12.37;;;2.40;99.90;;;;;;10339689;28;20064;-82
2023/01/25 14:40:37;;;;;;;377.30;280.40;;;2.30;99.90;;;;;;10356424;28;20686;-83
2023/01/25 14:45:38;;;;;;;36.40;20.47;;;2.30;99.90;;;;;;10344724;28;20131;-84
2023/01/25 14:50:40;;;;;;;37.73;18.93;;;2.30;99.90;;;;;;10340659;28;20130;-83
2023/01/25 14:55:45;;;;;;;53.37;31.50;;;2.30;99.90;;;;;;10346698;28;20041;-90
2023/01/25 15:00:58;;;;;;;55.65;29.42;;;2.20;99.90;;;;;;10346757;28;20037;-87
2023/01/25 15:06:02;;;;;;;28.20;14.47;;;2.20;99.90;;;;;;10346941;28;20036;-86
2023/01/25 15:16:34;;;;;;;25.63;12.97;;;2.20;99.90;;;;;;10310680;28;20042;-82
2023/01/25 15:21:34;;;;;;;37.80;21.37;;;2.20;99.90;;;;;;10353777;28;20533;-83
2023/01/25 15:26:35;;;;;;;75.20;43.27;;;2.10;99.90;;;;;;10357687;28;20095;-84
2023/01/25 15:31:37;;;;;;;80.40;30.37;;;2.10;99.90;;;;;;10342742;28;20121;-84
2023/01/25 15:36:37;;;;;;;48.23;23.70;;;2.10;99.90;;;;;;10361391;28;20041;-84
2023/01/25 15:41:38;;;;;;;42.67;19.13;;;2.10;99.90;;;;;;10347854;28;20037;-84
2023/01/25 15:46:41;;;;;;;57.77;26.00;;;2.10;99.90;;;;;;10340369;28;20493;-83
2023/01/25 15:51:42;;;;;;;41.67;19.73;;;2.10;99.90;;;;;;10344048;28;20045;-93
2023/01/25 15:56:50;;;;;;;47.47;22.47;;;2.20;99.90;;;;;;10344572;28;20112;-83
2023/01/25 16:01:50;;;;;;;39.33;17.57;;;2.20;99.90;;;;;;10329851;28;20111;-83
2023/01/25 16:06:53;;;;;;;36.47;17.20;;;2.10;99.90;;;;;;10349894;28;20029;-84
2023/01/25 16:11:56;;;;;;;33.07;16.50;;;2.10;99.90;;;;;;10345034;28;20485;-85
2023/01/25 16:17:00;;;;;;;31.03;14.53;;;2.10;99.90;;;;;;10334044;28;20037;-84
2023/01/25 16:22:00;;;;;;;25.33;13.47;;;2.10;99.90;;;;;;10331058;28;20030;-86
2023/01/25 16:27:01;;;;;;;29.90;13.67;;;2.10;99.90;;;;;;10335110;28;20390;-84
2023/01/25 16:32:01;;;;;;;28.13;13.53;;;2.10;99.90;;;;;;10317156;28;20407;-84
2023/01/25 16:37:02;;;;;;;31.77;14.80;;;2.00;99.90;;;;;;10360798;28;20026;-85
2023/01/25 16:42:03;;;;;;;33.47;16.27;;;2.00;99.90;;;;;;10337002;28;20084;-81
2023/01/25 16:47:04;;;;;;;30.90;16.00;;;2.10;99.90;;;;;;10315627;28;20037;-85
2023/01/25 16:52:05;;;;;;;36.00;17.17;;;2.00;99.90;;;;;;10330181;28;20026;-82
2023/01/25 16:57:07;;;;;;;39.43;18.57;;;2.00;99.90;;;;;;10316413;28;20046;-84
2023/01/25 17:02:11;;;;;;;40.77;18.83;;;2.00;99.90;;;;;;10305268;28;20128;-87
2023/01/25 17:07:12;;;;;;;46.17;20.63;;;2.00;99.90;;;;;;10316873;28;20019;-87
2023/01/25 17:12:13;;;;;;;40.77;20.80;;;2.00;99.90;;;;;;10315490;28;20042;-86
2023/01/25 17:17:14;;;;;;;44.13;21.00;;;2.00;99.90;;;;;;10313099;28;20035;-87
2023/01/25 17:22:14;;;;;;;42.83;20.50;;;2.00;99.90;;;;;;10328424;28;20603;-88
2023/01/25 17:27:16;;;;;;;45.33;25.17;;;2.00;99.90;;;;;;10337391;28;20034;-89
2023/01/25 17:32:16;;;;;;;49.30;22.70;;;2.00;99.90;;;;;;10328976;28;20508;-89
2023/01/25 17:37:17;;;;;;;44.30;20.60;;;2.00;99.90;;;;;;10314407;28;20031;-86
2023/01/25 17:42:17;;;;;;;47.60;21.73;;;2.00;99.90;;;;;;10334167;28;20095;-86
2023/01/25 17:47:18;;;;;;;47.60;21.37;;;2.00;99.90;;;;;;10354641;28;20052;-85
2023/01/25 17:52:18;;;;;;;68.97;37.30;;;1.90;99.90;;;;;;10310752;28;20042;-85
2023/01/25 17:57:22;;;;;;;58.77;30.53;;;1.80;99.90;;;;;;10319714;28;20653;-85
2023/01/25 18:02:23;;;;;;;146.87;94.73;;;2.00;99.90;;;;;;10322777;28;20049;-85
2023/01/25 18:07:24;;;;;;;117.77;74.83;;;2.00;99.90;;;;;;10338249;28;20037;-85
2023/01/25 18:12:24;;;;;;;73.37;36.77;;;2.00;99.90;;;;;;10308998;28;20038;-87
2023/01/25 18:17:25;;;;;;;78.33;35.73;;;2.00;99.90;;;;;;10309658;28;20031;-87
2023/01/25 18:22:25;;;;;;;122.57;55.83;;;2.00;99.90;;;;;;10328691;28;20022;-87
2023/01/25 18:27:27;;;;;;;156.83;78.80;;;2.00;99.90;;;;;;10315407;28;20023;-87
2023/01/25 18:32:29;;;;;;;88.60;41.13;;;2.10;99.90;;;;;;10339893;28;20073;-87
2023/01/25 18:37:38;;;;;;;164.87;69.50;;;2.10;99.90;;;;;;10320067;28;20030;-86
2023/01/25 18:42:39;;;;;;;98.03;46.33;;;2.10;99.90;;;;;;10313420;28;20065;-90
2023/01/25 18:48:29;;;;;;;96.57;47.77;;;2.10;99.90;;;;;;10353501;28;20044;-87
2023/01/25 18:53:01;;;;;;;77.13;37.07;;;2.10;99.90;;;;;;10344832;28;20034;-88
2023/01/25 18:58:03;;;;;;;153.23;61.17;;;2.10;99.90;;;;;;10339959;28;20053;-87
2023/01/25 19:03:03;;;;;;;187.33;76.33;;;2.10;99.90;;;;;;10335141;28;20048;-85
2023/01/25 19:08:04;;;;;;;55.03;26.50;;;;;;;;;;10355987;28;20041;-91
2023/01/25 19:13:06;;;;;;;67.30;30.80;;;;;;;;;;10351037;28;20095;-90
2023/01/25 19:18:10;;;;;;;56.80;29.03;;;;;;;;;;10348503;28;20029;-89
2023/01/25 19:23:11;;;;;;;103.63;43.87;;;;;;;;;;10313696;28;20436;-85
2023/01/25 19:28:12;;;;;;;78.60;38.67;;;;;;;;;;10338688;28;20109;-88
2023/01/25 19:33:13;;;;;;;56.87;29.87;;;;;;;;;;10299460;28;20433;-87
2023/01/25 19:38:14;;;;;;;81.27;39.57;;;;;;;;;;10314450;28;20038;-85
2023/01/25 19:43:15;;;;;;;47.73;26.50;;;;;;;;;;10317379;28;20026;-85
2023/01/25 19:48:16;;;;;;;51.10;26.73;;;;;;;;;;10318928;28;20161;-85
2023/01/25 19:53:17;;;;;;;44.03;22.53;;;;;;;;;;10303646;28;20050;-85
2023/01/25 19:58:18;;;;;;;32.63;17.80;;;;;;;;;;10315623;28;20402;-87
2023/01/25 20:03:19;;;;;;;50.40;25.70;;;;;;;;;;10304463;28;20069;-85
2023/01/25 20:08:20;;;;;;;49.03;24.40;;;;;;;;;;10288088;28;20037;-85
2023/01/25 20:13:21;;;;;;;69.80;30.93;;;;;;;;;;10285822;28;20054;-84
2023/01/25 20:18:22;;;;;;;42.70;21.40;;;;;;;;;;10285402;28;20962;-85
2023/01/25 20:23:32;;;;;;;55.43;23.80;;;;;;;;;;10293668;28;20030;-85
2023/01/25 20:28:33;;;;;;;41.83;18.07;;;;;;;;;;10288839;28;20034;-85
2023/01/25 20:33:35;;;;;;;29.57;15.37;;;;;;;;;;10292338;28;20050;-86
2023/01/25 20:38:36;;;;;;;26.07;14.17;;;;;;;;;;10282943;28;20039;-85
2023/01/25 20:43:37;;;;;;;26.90;13.77;;;;;;;;;;10283891;28;20038;-85
2023/01/25 20:48:38;;;;;;;28.40;15.00;;;;;;;;;;10290964;28;20069;-85
2023/01/25 20:53:39;;;;;;;39.57;18.63;;;;;;;;;;10285116;28;20050;-85
2023/01/25 20:58:40;;;;;;;30.60;13.70;;;;;;;;;;10282048;28;20140;-85
2023/01/25 21:03:41;;;;;;;26.80;13.70;;;1.40;99.90;;;;;;10288654;28;20038;-85
2023/01/25 21:08:42;;;;;;;33.17;16.23;;;1.40;99.90;;;;;;10283997;28;20038;-85
2023/01/25 21:13:43;;;;;;;32.63;17.30;;;1.40;99.90;;;;;;10282739;28;20045;-85
2023/01/25 21:18:46;;;;;;;32.37;16.40;;;1.50;99.90;;;;;;10273400;28;20054;-85
2023/01/25 21:23:48;;;;;;;34.23;16.07;;;1.50;99.90;;;;;;10291697;28;20042;-84
2023/01/25 21:28:50;;;;;;;37.73;17.23;;;1.50;99.90;;;;;;10295249;28;20409;-85
2023/01/25 21:33:52;;;;;;;36.43;17.07;;;1.40;99.90;;;;;;10291661;28;20448;-85
2023/01/25 21:38:53;;;;;;;28.00;14.27;;;1.40;99.90;;;;;;10294012;28;20061;-84
2023/01/25 21:54:35;;;;;;;51.00;23.43;;;;;;;;;;10288683;28;20051;-85
2023/01/25 21:59:37;;;;;;;30.80;13.90;;;1.50;99.90;;;;;;10296535;28;20030;-84
2023/01/25 22:04:38;;;;;;;68.43;26.03;;;1.40;99.90;;;;;;10273525;28;20611;-84
2023/01/25 22:09:38;;;;;;;62.40;25.07;;;;;;;;;;10291654;28;20046;-85
2023/01/25 22:14:40;;;;;;;55.03;24.03;;;;;;;;;;10295192;28;20860;-85
2023/01/25 22:19:40;;;;;;;86.77;32.93;;;;;;;;;;10290398;28;20490;-85
2023/01/25 22:24:41;;;;;;;72.13;29.57;;;;;;;;;;10290973;28;20045;-86
2023/01/25 22:29:42;;;;;;;71.27;28.27;;;;;;;;;;10290733;28;20401;-86
2023/01/25 22:34:43;;;;;;;61.20;25.27;;;;;;;;;;10287689;28;20514;-85
2023/01/25 22:39:44;;;;;;;67.30;28.07;;;0.00;99.90;;;;;;10293309;28;20039;-85
2023/01/25 22:44:44;;;;;;;45.00;19.33;;;1.40;99.90;;;;;;10276834;28;20035;-85
2023/01/25 22:49:45;;;;;;;50.13;22.97;;;1.40;99.90;;;;;;10289045;28;20042;-85
2023/01/25 22:54:49;;;;;;;37.77;16.17;;;1.30;99.90;;;;;;10294630;28;20474;-85
2023/01/25 22:59:49;;;;;;;37.37;15.67;;;1.30;99.90;;;;;;10270883;28;20118;-86
2023/01/25 23:04:50;;;;;;;35.47;17.93;;;1.30;99.90;;;;;;10289633;28;20031;-84
2023/01/25 23:09:50;;;;;;;34.53;17.47;;;1.40;99.90;;;;;;10291437;28;20029;-84
2023/01/25 23:14:51;;;;;;;37.40;16.93;;;1.30;99.90;;;;;;10288301;28;20547;-85
2023/01/25 23:19:52;;;;;;;25.97;13.53;;;1.30;99.90;;;;;;10288663;28;20085;-85
2023/01/25 23:24:52;;;;;;;27.57;13.80;;;1.10;99.90;;;;;;10296663;28;20111;-86
2023/01/25 23:29:53;;;;;;;26.47;14.00;;;1.20;99.90;;;;;;10285700;28;20066;-85
2023/01/25 23:34:54;;;;;;;27.17;13.77;;;1.30;99.90;;;;;;10293466;28;20125;-85
2023/01/25 23:39:54;;;;;;;40.43;19.07;;;1.10;99.90;;;;;;10268110;28;20033;-85
2023/01/25 23:44:55;;;;;;;45.37;19.47;;;1.10;99.90;;;;;;10279147;28;20034;-85
2023/01/25 23:49:56;;;;;;;52.37;21.03;;;1.10;99.90;;;;;;10291466;28;20043;-86
2023/01/25 23:54:56;;;;;;;27.80;15.20;;;1.10;99.90;;;;;;10284867;28;20050;-85
2023/01/25 23:59:57;;;;;;;28.43;15.07;;;1.00;99.90;;;;;;10286608;28;20068;-85
